TimePDT,TemperatureF,Dew PointF,Humidity,Sea Level PressureIn,VisibilityMPH,Wind Direction,Wind SpeedMPH,Gust SpeedMPH,PrecipitationIn,Events,Conditions,WindDirDegrees,DateUTC
12:53 AM,70.0,36.0,29,29.90,10.0,South,3.5,-,N/A,,Clear,170,2013-04-05 07:53:00
1:53 AM,68.0,36.0,31,29.89,10.0,SSE,4.6,-,N/A,,Clear,160,2013-04-05 08:53:00
2:53 AM,66.9,37.9,34,29.88,10.0,Calm,Calm,-,N/A,,Clear,0,2013-04-05 09:53:00
3:53 AM,66.0,39.9,38,29.88,10.0,Calm,Calm,-,N/A,,Clear,0,2013-04-05 10:53:00
4:53 AM,64.0,43.0,46,29.88,10.0,SW,5.8,-,N/A,,Clear,230,2013-04-05 11:53:00
5:53 AM,61.0,43.0,52,29.88,10.0,SSW,4.6,-,N/A,,Clear,200,2013-04-05 12:53:00
6:53 AM,64.0,44.1,48,29.89,10.0,Calm,Calm,-,N/A,,Clear,0,2013-04-05 13:53:00
7:53 AM,69.1,43.0,39,29.92,10.0,NNE,3.5,-,N/A,,Clear,20,2013-04-05 14:53:00
8:53 AM,70.0,46.0,42,29.94,10.0,West,3.5,-,N/A,,Clear,280,2013-04-05 15:53:00
9:53 AM,73.9,45.0,35,29.94,10.0,NW,9.2,-,N/A,,Clear,310,2013-04-05 16:53:00
10:53 AM,77.0,39.9,26,29.94,10.0,Calm,Calm,-,N/A,,Clear,0,2013-04-05 17:53:00
11:53 AM,79.0,37.9,23,29.93,10.0,East,5.8,-,N/A,,Clear,90,2013-04-05 18:53:00
12:53 PM,82.9,37.9,20,29.89,10.0,Variable,5.8,-,N/A,,Clear,0,2013-04-05 19:53:00
1:53 PM,82.9,41.0,23,29.87,10.0,NNW,12.7,24.2,N/A,,Clear,330,2013-04-05 20:53:00
2:53 PM,82.9,44.1,25,29.85,10.0,NW,15.0,21.9,N/A,,Scattered Clouds,310,2013-04-05 21:53:00
3:53 PM,82.9,44.1,25,29.83,10.0,NW,23.0,27.6,N/A,,Mostly Cloudy,320,2013-04-05 22:53:00
4:53 PM,82.9,44.1,25,29.82,10.0,NW,20.7,27.6,N/A,,Scattered Clouds,320,2013-04-05 23:53:00
5:53 PM,81.0,44.1,27,29.82,10.0,NW,17.3,28.8,N/A,,Clear,320,2013-04-06 00:53:00
6:53 PM,77.0,46.0,33,29.81,10.0,NW,19.6,27.6,N/A,,Clear,320,2013-04-06 01:53:00
7:53 PM,73.9,48.0,40,29.82,10.0,NW,25.3,-,N/A,,Clear,320,2013-04-06 02:53:00
8:53 PM,73.0,48.0,41,29.84,10.0,NW,24.2,28.8,N/A,,Clear,320,2013-04-06 03:53:00
9:53 PM,72.0,48.9,44,29.86,10.0,NW,18.4,31.1,N/A,,Clear,320,2013-04-06 04:53:00
10:53 PM,72.0,46.9,41,29.85,10.0,NW,12.7,17.3,N/A,,Clear,310,2013-04-06 05:53:00
11:53 PM,70.0,48.9,47,29.85,10.0,WNW,11.5,25.3,N/A,,Clear,290,2013-04-06 06:53:00